createdAt,value
2022-12-06T00:02:24.524Z,3.58
2022-12-06T00:04:58.835Z,3.60
2022-12-06T00:07:33.110Z,3.35
2022-12-06T00:10:07.597Z,3.58
2022-12-06T00:12:40.708Z,3.72
2022-12-06T00:15:13.961Z,3.78
2022-12-06T00:17:47.083Z,4.32
2022-12-06T00:20:21.517Z,3.92
2022-12-06T00:22:54.602Z,3.65
2022-12-06T00:25:27.865Z,3.63
2022-12-06T00:28:00.868Z,3.95
2022-12-06T00:30:33.901Z,4.00
2022-12-06T00:33:07.218Z,3.78
2022-12-06T00:35:41.650Z,3.83
2022-12-06T00:38:14.826Z,3.67
2022-12-06T00:40:47.976Z,3.38
2022-12-06T00:43:21.053Z,3.70
2022-12-06T00:45:54.063Z,4.25
2022-12-06T00:48:27.385Z,3.72
2022-12-06T00:51:02.198Z,3.60
2022-12-06T00:53:35.345Z,3.45
2022-12-06T00:56:08.939Z,3.95
2022-12-06T00:58:42.766Z,4.00
2022-12-06T01:01:18.217Z,3.67
2022-12-06T01:03:53.403Z,3.85
2022-12-06T01:06:29.985Z,3.88
2022-12-06T01:09:06.489Z,3.47
2022-12-06T01:11:39.621Z,3.60
2022-12-06T01:14:12.438Z,3.58
2022-12-06T01:16:45.375Z,3.83
2022-12-06T01:19:18.133Z,3.83
2022-12-06T01:21:52.445Z,3.95
2022-12-06T01:24:25.608Z,4.90
2022-12-06T01:26:58.754Z,4.38
2022-12-06T01:29:31.930Z,4.80
2022-12-06T01:32:04.988Z,4.45
2022-12-06T01:34:37.948Z,4.65
2022-12-06T01:37:12.178Z,4.45
2022-12-06T01:39:45.503Z,3.67
2022-12-06T01:42:18.649Z,3.90
2022-12-06T01:44:53.374Z,4.00
2022-12-06T01:47:28.519Z,4.15
2022-12-06T01:50:05.858Z,3.78
2022-12-06T01:52:48.732Z,3.20
2022-12-06T01:55:23.661Z,3.67
2022-12-06T01:58:01.658Z,3.47
2022-12-06T02:00:34.738Z,3.50
2022-12-06T02:03:12.016Z,4.07
2022-12-06T02:05:45.462Z,3.63
2022-12-06T02:08:22.043Z,4.07
2022-12-06T02:10:55.744Z,4.18
2022-12-06T02:13:29.365Z,3.92
2022-12-06T02:16:12.734Z,4.55
2022-12-06T02:18:51.014Z,4.15
2022-12-06T02:21:35.067Z,3.70
2022-12-06T02:24:37.285Z,4.30
2022-12-06T02:27:33.697Z,3.85
2022-12-06T02:30:12.802Z,3.63
2022-12-06T02:32:55.237Z,4.10
2022-12-06T02:35:34.537Z,3.85
2022-12-06T02:38:13.203Z,4.22
2022-12-06T02:40:51.018Z,3.95
2022-12-06T02:43:28.877Z,4.00
2022-12-06T02:46:04.780Z,3.72
2022-12-06T02:48:40.603Z,4.07
2022-12-06T02:51:16.944Z,3.97
2022-12-06T02:53:54.108Z,5.07
2022-12-06T02:56:27.554Z,3.90
2022-12-06T02:59:00.694Z,4.50
2022-12-06T03:01:36.860Z,3.72
2022-12-06T03:04:32.779Z,3.95
2022-12-06T03:07:17.890Z,3.80
2022-12-06T03:09:59.986Z,4.10
2022-12-06T03:12:40.755Z,3.92
2022-12-06T03:15:17.531Z,4.20
2022-12-06T03:17:55.241Z,4.47
2022-12-06T03:20:42.558Z,3.75
2022-12-06T03:23:20.453Z,4.00
2022-12-06T03:25:56.628Z,3.97
2022-12-06T03:28:31.195Z,3.75
2022-12-06T03:31:09.170Z,4.18
2022-12-06T03:33:48.260Z,3.40
2022-12-06T03:36:24.906Z,3.90
2022-12-06T03:39:02.796Z,4.07
2022-12-06T03:41:42.236Z,3.95
2022-12-06T03:44:15.439Z,3.63
2022-12-06T03:46:52.015Z,4.13
2022-12-06T03:49:32.349Z,3.88
2022-12-06T03:52:06.972Z,3.97
2022-12-06T03:54:40.853Z,4.13
2022-12-06T03:57:14.503Z,4.38
2022-12-06T03:59:47.317Z,4.45
2022-12-06T04:02:20.155Z,4.05
2022-12-06T04:04:53.344Z,3.47
2022-12-06T04:07:27.628Z,4.32
2022-12-06T04:10:03.841Z,4.55
2022-12-06T04:12:54.494Z,4.32
2022-12-06T04:15:29.433Z,4.13
2022-12-06T04:18:13.474Z,3.88
2022-12-06T04:21:08.728Z,4.22
2022-12-06T04:23:44.995Z,4.15
2022-12-06T04:26:19.819Z,4.57
2022-12-06T04:29:11.467Z,4.50
2022-12-06T04:32:01.631Z,4.05
2022-12-06T04:34:51.854Z,4.50
2022-12-06T04:37:42.108Z,4.25
2022-12-06T04:40:16.810Z,4.15
2022-12-06T04:43:06.891Z,4.50
2022-12-06T04:45:39.707Z,4.63
2022-12-06T04:48:12.956Z,4.35
2022-12-06T04:50:48.960Z,4.57
2022-12-06T04:53:21.934Z,4.50
2022-12-06T04:55:56.270Z,3.85
2022-12-06T04:58:29.092Z,4.05
2022-12-06T05:01:02.146Z,4.30
2022-12-06T05:03:38.346Z,3.40
2022-12-06T05:06:14.242Z,4.30
2022-12-06T05:08:47.379Z,4.05
2022-12-06T05:11:21.581Z,3.65
2022-12-06T05:13:54.345Z,3.95
2022-12-06T05:16:27.796Z,4.30
2022-12-06T05:19:00.717Z,4.15
2022-12-06T05:21:33.933Z,4.13
2022-12-06T05:24:07.424Z,4.10
2022-12-06T05:26:41.626Z,4.38
2022-12-06T05:29:14.481Z,4.10
2022-12-06T05:31:47.599Z,4.47
2022-12-06T05:34:20.936Z,4.40
2022-12-06T05:36:53.800Z,4.20
2022-12-06T05:39:26.751Z,4.40
2022-12-06T05:42:00.872Z,4.45
2022-12-06T05:44:33.996Z,4.45
2022-12-06T05:47:06.964Z,4.40
2022-12-06T05:49:39.843Z,5.60
2022-12-06T05:52:13.775Z,5.97
2022-12-06T05:54:46.521Z,5.57
2022-12-06T05:57:21.217Z,5.93
2022-12-06T05:59:54.615Z,5.68
2022-12-06T06:02:27.721Z,5.40
2022-12-06T06:05:01.208Z,5.68
2022-12-06T06:07:34.238Z,5.57
2022-12-06T06:10:08.318Z,5.55
2022-12-06T06:12:42.832Z,5.40
2022-12-06T06:15:16.569Z,5.40
2022-12-06T06:17:49.396Z,5.22
2022-12-06T06:20:22.427Z,5.20
2022-12-06T06:22:55.412Z,4.63
2022-12-06T06:25:28.306Z,5.57
2022-12-06T06:28:02.485Z,5.55
2022-12-06T06:30:35.594Z,5.65
2022-12-06T06:33:08.717Z,5.05
2022-12-06T06:35:42.726Z,5.20
2022-12-06T06:38:15.679Z,5.35
2022-12-06T06:40:48.529Z,5.03
2022-12-06T06:43:22.886Z,5.43
2022-12-06T06:45:58.109Z,4.95
2022-12-06T06:48:33.626Z,5.10
2022-12-06T06:51:08.501Z,4.97
2022-12-06T06:53:41.843Z,5.10
2022-12-06T06:56:14.885Z,4.93
2022-12-06T06:58:49.140Z,4.47
2022-12-06T07:01:24.139Z,5.03
2022-12-06T07:03:57.642Z,5.43
2022-12-06T07:06:30.743Z,5.50
2022-12-06T07:09:04.022Z,4.50
2022-12-06T07:11:36.908Z,4.18
2022-12-06T07:14:13.221Z,4.40
2022-12-06T07:16:46.273Z,5.28
2022-12-06T07:19:19.246Z,4.93
2022-12-06T07:21:52.342Z,5.03
2022-12-06T07:24:27.806Z,5.43
2022-12-06T07:27:00.978Z,5.18
2022-12-06T07:29:35.338Z,4.50
2022-12-06T07:32:08.247Z,5.00
2022-12-06T07:34:41.268Z,5.25
2022-12-06T07:37:15.256Z,4.55
2022-12-06T07:39:48.438Z,5.35
2022-12-06T07:42:38.819Z,5.60
2022-12-06T07:45:15.476Z,5.53
2022-12-06T07:47:48.762Z,4.88
2022-12-06T07:50:23.970Z,5.53
2022-12-06T07:52:57.038Z,5.15
2022-12-06T07:55:32.174Z,5.63
2022-12-06T07:58:05.078Z,5.18
2022-12-06T08:00:41.495Z,5.60
2022-12-06T08:03:14.380Z,5.75
2022-12-06T08:05:54.969Z,5.45
2022-12-06T08:08:29.084Z,5.50
2022-12-06T08:11:02.635Z,6.13
2022-12-06T08:13:37.481Z,6.35
2022-12-06T08:16:14.019Z,6.85
2022-12-06T08:18:47.161Z,6.68
2022-12-06T08:21:20.162Z,5.75
2022-12-06T08:23:54.301Z,5.35
2022-12-06T08:26:27.476Z,4.97
2022-12-06T08:29:01.295Z,4.45
2022-12-06T08:31:35.683Z,4.68
2022-12-06T08:34:08.919Z,4.55
2022-12-06T08:36:42.106Z,5.47
2022-12-06T08:39:15.025Z,5.78
2022-12-06T08:41:58.071Z,5.63
2022-12-06T08:44:32.716Z,5.95
2022-12-06T08:47:06.965Z,5.70
2022-12-06T08:49:39.931Z,6.50
2022-12-06T08:52:13.077Z,5.95
2022-12-06T08:54:45.941Z,5.82
2022-12-06T08:57:18.850Z,5.47
2022-12-06T08:59:51.752Z,5.60
2022-12-06T09:02:27.046Z,6.25
2022-12-06T09:05:00.022Z,6.10
2022-12-06T09:07:33.360Z,6.60
2022-12-06T09:10:07.558Z,6.43
2022-12-06T09:12:40.706Z,7.15
2022-12-06T09:15:13.661Z,7.60
2022-12-06T09:17:48.081Z,7.93
2022-12-06T09:20:20.907Z,7.68
2022-12-06T09:22:54.017Z,8.13
2022-12-06T09:25:26.950Z,8.32
2022-12-06T09:28:00.760Z,7.75
2022-12-06T09:30:33.556Z,8.43
2022-12-06T09:33:08.890Z,8.85
2022-12-06T09:35:41.755Z,8.95
2022-12-06T09:38:15.086Z,9.23
2022-12-06T09:40:56.841Z,9.18
2022-12-06T09:43:43.911Z,9.23
2022-12-06T09:46:32.232Z,9.68
2022-12-06T09:49:31.600Z,8.55
2022-12-06T09:52:23.130Z,7.57
2022-12-06T09:55:19.331Z,7.22
2022-12-06T09:58:00.856Z,7.32
2022-12-06T10:00:41.850Z,6.97
2022-12-06T10:03:41.881Z,7.93
2022-12-06T10:06:19.406Z,6.75
2022-12-06T10:09:05.026Z,6.65
2022-12-06T10:12:10.090Z,7.32
2022-12-06T10:15:05.534Z,7.03
2022-12-06T10:17:52.237Z,7.75
2022-12-06T10:20:36.046Z,7.75
2022-12-06T10:23:22.382Z,6.85
2022-12-06T10:26:04.731Z,7.40
2022-12-06T10:28:46.424Z,7.05
2022-12-06T10:31:24.807Z,6.88
2022-12-06T10:33:59.363Z,6.47
2022-12-06T10:36:43.614Z,6.80
2022-12-06T10:39:23.036Z,5.78
2022-12-06T10:42:04.031Z,6.28
2022-12-06T10:44:42.621Z,5.77
2022-12-06T10:47:21.070Z,5.60
2022-12-06T10:49:59.278Z,5.40
2022-12-06T10:52:41.992Z,5.88
2022-12-06T10:55:26.098Z,4.95
2022-12-06T10:58:11.527Z,4.68
2022-12-06T11:00:54.068Z,5.20
2022-12-06T11:03:35.062Z,4.72
2022-12-06T11:06:14.273Z,4.50
2022-12-06T11:08:52.019Z,4.22
2022-12-06T11:11:32.842Z,4.32
2022-12-06T11:14:12.730Z,4.60
2022-12-06T11:16:51.708Z,4.80
2022-12-06T11:19:31.759Z,4.55
2022-12-06T11:22:13.575Z,3.83
2022-12-06T11:24:54.271Z,4.10
2022-12-06T11:27:34.800Z,4.57
2022-12-06T11:30:19.764Z,4.72
2022-12-06T11:32:53.951Z,4.57
2022-12-06T11:35:29.634Z,4.65
2022-12-06T11:38:07.430Z,4.32
2022-12-06T11:40:44.914Z,4.53
2022-12-06T11:43:25.341Z,5.00
2022-12-06T11:45:59.424Z,3.92
2022-12-06T11:48:35.407Z,4.03
2022-12-06T11:51:16.771Z,4.88
2022-12-06T11:54:01.486Z,3.72
2022-12-06T11:56:38.407Z,3.10
2022-12-06T11:59:25.206Z,3.35
2022-12-06T12:02:00.895Z,3.00
2022-12-06T12:04:43.015Z,2.78
2022-12-06T12:07:18.455Z,2.60
2022-12-06T12:09:57.782Z,3.20
2022-12-06T12:13:07.558Z,3.40
2022-12-06T12:15:51.252Z,3.00
2022-12-06T12:18:27.726Z,6.13
2022-12-06T12:21:02.496Z,6.85
2022-12-06T12:23:38.695Z,6.25
2022-12-06T12:26:15.036Z,7.47
2022-12-06T12:29:06.058Z,7.75
2022-12-06T12:31:48.601Z,8.38
2022-12-06T12:34:23.255Z,8.80
2022-12-06T12:37:00.299Z,9.57
2022-12-06T12:39:36.181Z,9.30
2022-12-06T12:42:28.354Z,9.00
2022-12-06T12:45:04.420Z,9.27
2022-12-06T12:47:38.777Z,8.98
2022-12-06T12:50:20.919Z,9.45
2022-12-06T12:52:54.755Z,10.02
2022-12-06T12:55:30.401Z,10.65
2022-12-06T12:58:03.428Z,10.48
2022-12-06T13:00:39.887Z,10.55
2022-12-06T13:03:49.662Z,10.65
2022-12-06T13:06:24.401Z,9.63
2022-12-06T13:09:01.301Z,10.93
2022-12-06T13:11:49.106Z,10.70
2022-12-06T13:14:24.967Z,10.45
2022-12-06T13:17:01.754Z,9.77
2022-12-06T13:19:40.581Z,9.82
2022-12-06T13:22:24.842Z,10.65
2022-12-06T13:25:02.344Z,10.00
2022-12-06T13:27:39.027Z,9.93
2022-12-06T13:30:16.747Z,10.48
2022-12-06T13:32:53.369Z,10.60
2022-12-06T13:35:32.608Z,10.48
2022-12-06T13:38:27.061Z,9.43
2022-12-06T13:41:01.254Z,9.38
2022-12-06T13:43:55.837Z,9.98
2022-12-06T13:46:31.699Z,9.60
2022-12-06T13:49:24.959Z,10.13
2022-12-06T13:51:59.766Z,10.25
2022-12-06T13:54:33.453Z,9.45
2022-12-06T13:57:24.608Z,9.90
2022-12-06T13:59:58.450Z,9.43
2022-12-06T14:02:52.925Z,9.82
2022-12-06T14:08:43.721Z,8.82
2022-12-06T14:11:23.692Z,9.32
2022-12-06T14:14:08.861Z,9.30
2022-12-06T14:16:46.341Z,9.00
2022-12-06T14:19:21.550Z,10.05
2022-12-06T14:21:56.955Z,10.00
2022-12-06T14:24:35.213Z,10.13
2022-12-06T14:27:14.591Z,10.10
2022-12-06T14:30:02.037Z,10.23
2022-12-06T14:32:37.253Z,9.18
2022-12-06T14:35:15.879Z,9.52
2022-12-06T14:37:51.687Z,9.88
2022-12-06T14:40:45.400Z,9.48
2022-12-06T14:43:19.634Z,9.57
2022-12-06T14:45:53.731Z,9.68
2022-12-06T14:48:27.395Z,9.35
2022-12-06T14:51:02.077Z,10.30
2022-12-06T14:53:37.280Z,10.30
2022-12-06T14:56:23.606Z,10.70
2022-12-06T14:58:59.600Z,10.43
2022-12-06T15:01:32.996Z,9.55
2022-12-06T15:04:09.353Z,9.95
2022-12-06T15:06:53.216Z,10.05
2022-12-06T15:09:26.141Z,11.07
2022-12-06T15:12:37.925Z,10.95
2022-12-06T15:15:32.360Z,9.73
2022-12-06T15:18:14.060Z,10.00
2022-12-06T15:20:47.653Z,10.23
2022-12-06T15:23:31.592Z,9.85
2022-12-06T15:26:06.070Z,11.05
2022-12-06T15:28:41.547Z,11.00
2022-12-06T15:31:19.109Z,10.88
2022-12-06T15:33:52.210Z,10.35
2022-12-06T15:36:29.635Z,10.55
2022-12-06T15:39:02.552Z,10.68
2022-12-06T15:41:37.621Z,9.73
2022-12-06T15:44:15.513Z,10.02
2022-12-06T15:46:49.564Z,10.18
2022-12-06T15:49:25.581Z,10.18
2022-12-06T15:52:00.227Z,10.07
2022-12-06T15:54:33.157Z,9.65
2022-12-06T15:57:06.099Z,9.27
2022-12-06T15:59:40.368Z,10.70
2022-12-06T16:02:16.081Z,9.55
2022-12-06T16:04:50.953Z,9.48
2022-12-06T16:07:24.210Z,9.95
2022-12-06T16:09:57.522Z,9.35
2022-12-06T16:12:50.474Z,9.93
2022-12-06T16:15:25.522Z,9.88
2022-12-06T16:17:58.903Z,9.27
2022-12-06T16:20:32.043Z,9.20
2022-12-06T16:23:49.840Z,8.98
2022-12-06T16:26:24.366Z,8.95
2022-12-06T16:28:58.890Z,9.68
2022-12-06T16:31:38.303Z,9.23
2022-12-06T16:34:11.854Z,9.13
2022-12-06T16:36:59.766Z,8.95
2022-12-06T16:39:35.044Z,8.95
2022-12-06T16:42:08.060Z,8.75
2022-12-06T16:44:51.137Z,9.82
2022-12-06T16:49:57.801Z,8.60
2022-12-06T16:52:30.742Z,9.23
2022-12-06T16:55:03.927Z,9.18
2022-12-06T16:57:37.083Z,8.85
2022-12-06T17:00:12.334Z,9.35
2022-12-06T17:02:46.665Z,9.07
2022-12-06T17:05:22.476Z,9.27
2022-12-06T17:07:55.664Z,9.40
2022-12-06T17:10:28.758Z,9.30
2022-12-06T17:13:02.055Z,9.90
2022-12-06T17:15:35.058Z,9.35
2022-12-06T17:18:09.485Z,9.90
2022-12-06T17:20:42.375Z,9.85
2022-12-06T17:23:16.636Z,9.25
2022-12-06T17:25:58.041Z,10.00
2022-12-06T17:28:31.072Z,10.30
2022-12-06T17:31:08.399Z,10.90
2022-12-06T17:33:43.067Z,10.30
2022-12-06T17:36:17.634Z,10.52
2022-12-06T17:38:54.346Z,10.80
2022-12-06T17:41:51.590Z,10.13
2022-12-06T17:44:25.240Z,10.77
2022-12-06T17:46:58.302Z,12.73
2022-12-06T17:49:32.634Z,11.13
2022-12-06T17:52:06.414Z,10.15
2022-12-06T17:54:39.601Z,10.23
2022-12-06T17:57:16.259Z,10.23
2022-12-06T17:59:49.463Z,10.55
2022-12-06T18:02:25.824Z,10.18
2022-12-06T18:05:01.378Z,10.20
2022-12-06T18:07:35.337Z,10.18
2022-12-06T18:10:09.320Z,11.05
2022-12-06T18:12:42.436Z,10.15
2022-12-06T18:15:29.179Z,10.52
2022-12-06T18:18:02.399Z,9.48
2022-12-06T18:20:36.583Z,9.85
2022-12-06T18:23:10.398Z,10.90
2022-12-06T18:25:43.921Z,10.13
2022-12-06T18:28:17.299Z,9.70
2022-12-06T18:30:50.168Z,9.65
2022-12-06T18:33:27.891Z,9.93
2022-12-06T18:36:04.717Z,9.55
2022-12-06T18:38:37.920Z,10.07
2022-12-06T18:41:13.425Z,10.43
2022-12-06T18:43:46.824Z,10.25
2022-12-06T18:46:21.584Z,10.48
2022-12-06T18:48:56.860Z,11.68
2022-12-06T18:51:33.417Z,10.95
2022-12-06T18:54:07.109Z,10.43
2022-12-06T18:56:40.238Z,10.80
2022-12-06T18:59:13.484Z,10.35
2022-12-06T19:01:46.545Z,10.82
2022-12-06T19:04:19.552Z,10.70
2022-12-06T19:06:54.274Z,10.20
2022-12-06T19:09:27.525Z,9.82
2022-12-06T19:12:02.780Z,10.80
2022-12-06T19:14:35.867Z,9.95
2022-12-06T19:17:11.681Z,11.02
2022-12-06T19:19:44.572Z,10.10
2022-12-06T19:22:18.849Z,10.80
2022-12-06T19:24:51.741Z,10.73
2022-12-06T19:27:24.668Z,11.20
2022-12-06T19:29:57.555Z,11.23
2022-12-06T19:32:30.502Z,10.73
2022-12-06T19:35:08.380Z,11.57
2022-12-06T19:37:43.001Z,10.07
2022-12-06T19:40:16.120Z,11.00
2022-12-06T19:43:06.447Z,11.32
2022-12-06T19:45:40.011Z,11.05
2022-12-06T19:48:12.946Z,11.30
2022-12-06T19:50:46.037Z,11.20
2022-12-06T19:53:20.772Z,10.60
2022-12-06T19:55:53.751Z,11.93
2022-12-06T19:58:26.679Z,12.20
2022-12-06T20:00:59.602Z,11.77
2022-12-06T20:03:32.564Z,11.60
2022-12-06T20:06:08.057Z,11.13
2022-12-06T20:08:42.997Z,10.93
2022-12-06T20:11:37.952Z,10.43
2022-12-06T20:14:13.316Z,11.63
2022-12-06T20:16:46.621Z,11.70
2022-12-06T20:19:20.961Z,11.70
2022-12-06T20:21:53.941Z,11.85
2022-12-06T20:24:29.011Z,12.20
2022-12-06T20:27:03.556Z,12.35
2022-12-06T20:29:38.642Z,11.88
2022-12-06T20:32:11.566Z,12.20
2022-12-06T20:34:44.927Z,12.30
2022-12-06T20:37:18.218Z,12.35
2022-12-06T20:39:52.519Z,12.25
2022-12-06T20:42:26.558Z,13.32
2022-12-06T20:44:59.623Z,14.00
2022-12-06T20:47:32.932Z,13.73
2022-12-06T20:50:08.634Z,14.02
2022-12-06T20:52:41.792Z,14.35
2022-12-06T20:55:16.449Z,14.82
2022-12-06T20:57:49.351Z,14.00
2022-12-06T21:00:22.803Z,13.75
2022-12-06T21:02:55.942Z,13.88
2022-12-06T21:05:29.034Z,14.70
2022-12-06T21:08:02.011Z,14.88
2022-12-06T21:10:53.837Z,14.80
2022-12-06T21:13:30.383Z,13.63
2022-12-06T21:16:04.610Z,14.35
2022-12-06T21:18:38.087Z,15.25
2022-12-06T21:21:12.161Z,14.63
2022-12-06T21:23:45.064Z,14.57
2022-12-06T21:26:19.849Z,13.85
2022-12-06T21:28:54.558Z,14.52
2022-12-06T21:31:29.027Z,14.15
2022-12-06T21:34:02.837Z,15.13
2022-12-06T21:36:35.888Z,14.95
2022-12-06T21:39:09.813Z,15.10
2022-12-06T21:41:44.500Z,15.95
2022-12-06T21:44:17.759Z,16.42
2022-12-06T21:46:53.115Z,15.90
2022-12-06T21:49:26.646Z,15.85
2022-12-06T21:52:04.582Z,15.23
2022-12-06T21:54:41.885Z,14.73
2022-12-06T21:57:16.377Z,14.85
2022-12-06T21:59:49.366Z,14.77
2022-12-06T22:02:22.604Z,15.63
2022-12-06T22:04:55.777Z,15.25
2022-12-06T22:07:29.164Z,14.57
2022-12-06T22:10:02.362Z,15.02
2022-12-06T22:12:37.372Z,15.60
2022-12-06T22:15:11.494Z,15.07
2022-12-06T22:17:44.560Z,15.57
2022-12-06T22:20:17.548Z,14.90
2022-12-06T22:22:52.949Z,16.20
2022-12-06T22:25:26.928Z,15.35
2022-12-06T22:28:01.420Z,15.13
2022-12-06T22:30:34.913Z,15.98
2022-12-06T22:33:09.015Z,15.95
2022-12-06T22:35:42.063Z,15.77
2022-12-06T22:38:15.021Z,15.50
2022-12-06T22:40:56.975Z,15.63
2022-12-06T22:46:06.596Z,13.25
2022-12-06T22:48:41.208Z,13.65
2022-12-06T22:51:16.020Z,15.10
2022-12-06T22:53:54.399Z,15.52
2022-12-06T22:56:28.957Z,16.05
2022-12-06T22:59:04.105Z,16.23
2022-12-06T23:01:40.380Z,16.17
2022-12-06T23:04:13.597Z,15.52
2022-12-06T23:06:46.572Z,15.63
2022-12-06T23:09:19.592Z,16.48
2022-12-06T23:11:52.554Z,15.85
2022-12-06T23:14:26.962Z,15.48
2022-12-06T23:17:00.007Z,15.50
2022-12-06T23:19:33.094Z,16.05
2022-12-06T23:22:06.083Z,15.40
2022-12-06T23:24:39.247Z,16.05
2022-12-06T23:27:12.194Z,15.85
2022-12-06T23:29:46.580Z,16.80
2022-12-06T23:32:20.282Z,15.77
2022-12-06T23:34:53.372Z,15.68
2022-12-06T23:37:26.227Z,16.70
2022-12-06T23:40:00.045Z,16.20
2022-12-06T23:42:33.372Z,16.33
2022-12-06T23:45:09.442Z,16.70
2022-12-06T23:47:42.317Z,16.02
2022-12-06T23:50:15.533Z,16.40
2022-12-06T23:52:48.395Z,17.00
2022-12-06T23:55:21.418Z,17.05
2022-12-06T23:57:54.284Z,16.73
